Time;durP1;ratioP1;P1;durP2;ratioP2;P2;SDS_P1;SDS_P2;PMS_P1;PMS_P2;Temp;Humidity;BMP_temperature;BMP_pressure;BME280_temperature;BME280_humidity;BME280_pressure;Samples;Min_cycle;Max_cycle;Signal;HPM_P1;HPM_P2
2022/12/15 00:39:24;;;;;;;2.42;2.10;;;20.60;38.00;;;;;;5093509;28;20044;-10
2022/12/15 00:41:50;;;;;;;3.00;2.63;;;20.70;38.00;;;;;;5093726;28;20054;-10
2022/12/15 00:44:16;;;;;;;2.85;2.55;;;20.60;38.00;;;;;;5093082;28;20058;-10
2022/12/15 00:46:53;;;;;;;3.05;2.75;;;20.60;38.00;;;;;;5093150;28;20446;-10
2022/12/15 01:22:20;;;;;;;3.03;2.60;;;20.60;38.00;;;;;;5092705;28;20086;-10
2022/12/15 01:24:46;;;;;;;2.97;2.60;;;20.60;38.00;;;;;;5092620;28;20511;-10
2022/12/15 01:27:11;;;;;;;3.28;2.75;;;20.60;38.00;;;;;;5091784;28;20062;-10
2022/12/15 01:29:37;;;;;;;2.95;2.65;;;20.60;38.00;;;;;;5092564;28;20044;-10
2022/12/15 01:32:03;;;;;;;2.40;2.20;;;20.60;38.00;;;;;;5092493;28;20062;-10
2022/12/15 01:34:28;;;;;;;2.83;2.53;;;20.70;38.10;;;;;;5092358;28;20056;-10
2022/12/15 01:36:54;;;;;;;3.72;2.40;;;20.60;38.00;;;;;;5092311;28;20051;-10
2022/12/15 01:39:20;;;;;;;3.28;2.83;;;20.60;38.00;;;;;;5092499;28;20052;-10
2022/12/15 01:41:45;;;;;;;2.45;2.25;;;20.70;38.00;;;;;;5092310;28;20517;-10
2022/12/15 01:44:20;;;;;;;3.83;2.70;;;20.70;38.00;;;;;;5092398;28;20408;-10
2022/12/15 01:46:48;;;;;;;2.60;2.35;;;20.70;38.00;;;;;;5092743;28;20060;-11
2022/12/15 01:49:28;;;;;;;2.88;2.60;;;20.60;38.00;;;;;;5092271;28;20079;-10
2022/12/15 01:51:59;;;;;;;1.83;1.73;;;20.70;37.90;;;;;;5092657;28;20056;-10
2022/12/15 01:54:31;;;;;;;3.00;2.67;;;20.70;38.00;;;;;;5092279;28;20076;-10
2022/12/15 01:57:03;;;;;;;2.35;2.15;;;20.70;37.90;;;;;;5092486;28;20058;-10
2022/12/15 01:59:47;;;;;;;2.33;2.13;;;20.70;38.50;;;;;;5092575;28;20055;-10
2022/12/15 02:02:14;;;;;;;2.58;2.38;;;20.70;38.00;;;;;;5092197;28;20055;-10
2022/12/15 02:04:40;;;;;;;2.92;2.55;;;20.70;38.00;;;;;;5092048;28;20060;-10
2022/12/15 02:07:11;;;;;;;3.25;2.47;;;20.60;37.90;;;;;;5092318;28;20063;-10
2022/12/15 02:09:37;;;;;;;2.53;2.33;;;20.60;38.00;;;;;;5092365;28;20113;-10
2022/12/15 02:12:17;;;;;;;2.72;2.45;;;20.60;38.00;;;;;;5091931;28;20553;-10
2022/12/15 02:15:03;;;;;;;3.03;2.50;;;20.60;38.00;;;;;;5090611;28;20056;-10
2022/12/15 02:17:40;;;;;;;3.40;2.42;;;20.60;38.00;;;;;;5092063;28;20055;-10
2022/12/15 02:20:25;;;;;;;2.22;2.03;;;20.60;38.00;;;;;;5091839;28;20101;-10
2022/12/15 02:23:48;;;;;;;2.78;2.50;;;20.60;38.00;;;;;;5091660;28;20590;-10
2022/12/15 02:26:35;;;;;;;2.60;2.40;;;20.60;37.90;;;;;;4990209;28;20058;-10
2022/12/15 02:29:28;;;;;;;2.60;2.40;;;20.60;38.00;;;;;;4990018;28;20058;-10
2022/12/15 02:32:08;;;;;;;2.47;2.28;;;20.60;38.00;;;;;;5070839;28;20105;-10
2022/12/15 02:35:06;;;;;;;2.63;2.42;;;20.60;37.90;;;;;;5091699;28;20497;-10
2022/12/15 02:37:34;;;;;;;2.80;2.50;;;20.60;38.00;;;;;;5035695;28;20052;-10
2022/12/15 02:40:01;;;;;;;2.45;2.25;;;20.60;38.50;;;;;;5095363;28;20036;-10
2022/12/15 02:42:29;;;;;;;2.78;2.30;;;20.60;38.30;;;;;;5095005;28;20052;-10
2022/12/15 02:45:00;;;;;;;2.70;2.30;;;20.60;38.00;;;;;;5095040;28;20056;-10
2022/12/15 02:47:29;;;;;;;2.40;2.20;;;20.60;38.00;;;;;;5095291;28;20059;-10
2022/12/15 02:50:15;;;;;;;3.15;2.53;;;20.60;38.00;;;;;;5095224;28;20051;-10
2022/12/15 02:52:46;;;;;;;3.03;2.55;;;20.60;38.00;;;;;;5095345;28;20048;-10
2022/12/15 02:55:24;;;;;;;;;;;20.60;37.90;;;;;;5095416;28;20047;-10
2022/12/15 02:58:05;;;;;;;2.40;2.20;;;20.60;37.90;;;;;;5094672;28;19923;-10
2022/12/15 03:00:34;;;;;;;;;;;20.60;37.90;;;;;;5095504;28;20051;-10
2022/12/15 03:03:00;;;;;;;2.70;2.50;;;20.70;38.00;;;;;;5094851;28;19923;-10
2022/12/15 03:05:25;;;;;;;2.40;2.20;;;20.70;37.90;;;;;;5094429;28;20056;-10
2022/12/15 03:07:53;;;;;;;2.88;2.22;;;20.70;37.90;;;;;;5094877;28;20048;-10
2022/12/15 03:10:22;;;;;;;3.05;2.63;;;20.70;37.90;;;;;;5094529;28;20514;-10
2022/12/15 03:12:53;;;;;;;2.80;2.55;;;20.70;37.90;;;;;;5094671;28;20501;-10
2022/12/15 03:15:19;;;;;;;2.80;2.40;;;20.60;37.90;;;;;;5094878;28;20101;-10
2022/12/15 03:17:45;;;;;;;3.17;2.78;;;20.60;37.90;;;;;;5094557;28;20079;-10
2022/12/15 03:20:11;;;;;;;2.80;2.50;;;20.70;37.90;;;;;;5094376;28;20056;-10
2022/12/15 03:22:37;;;;;;;2.67;2.40;;;20.70;38.50;;;;;;5094841;28;20048;-10
2022/12/15 03:25:04;;;;;;;2.50;2.30;;;20.60;37.90;;;;;;5094473;28;20071;-10
2022/12/15 03:27:29;;;;;;;3.13;2.55;;;20.60;37.90;;;;;;5094382;28;20083;-10
2022/12/15 03:29:56;;;;;;;2.95;2.20;;;20.60;37.90;;;;;;5094179;28;20516;-10
2022/12/15 03:32:22;;;;;;;2.85;2.58;;;20.70;37.90;;;;;;5094345;28;20056;-10
2022/12/15 03:34:47;;;;;;;2.63;2.38;;;20.70;37.90;;;;;;5094331;28;20494;-10
2022/12/15 03:37:13;;;;;;;3.28;2.42;;;20.70;37.90;;;;;;5094577;28;20101;-10
2022/12/15 03:39:38;;;;;;;2.58;2.38;;;20.60;37.90;;;;;;5094179;28;20101;-10
2022/12/15 03:42:04;;;;;;;2.30;2.10;;;20.70;37.90;;;;;;5094174;28;20414;-10
2022/12/15 03:44:30;;;;;;;2.30;2.10;;;20.70;37.90;;;;;;5094047;28;20054;-10
2022/12/15 03:46:55;;;;;;;2.65;2.45;;;20.70;37.90;;;;;;5094166;28;20098;-10
2022/12/15 03:49:21;;;;;;;2.70;2.50;;;20.70;37.80;;;;;;5093502;28;20135;-10
2022/12/15 03:51:46;;;;;;;3.35;2.92;;;20.70;37.90;;;;;;5093847;28;20060;-10
2022/12/15 03:54:13;;;;;;;2.67;2.45;;;20.70;37.80;;;;;;5093891;28;20062;-10
2022/12/15 03:56:39;;;;;;;2.30;2.10;;;20.70;37.80;;;;;;5093948;28;20048;-10
2022/12/15 03:59:04;;;;;;;2.42;2.20;;;20.70;37.80;;;;;;5094153;28;20040;-10
2022/12/15 04:01:34;;;;;;;2.83;2.50;;;20.70;37.80;;;;;;5093888;28;20036;-10
2022/12/15 04:04:01;;;;;;;2.55;2.35;;;20.70;37.80;;;;;;5093865;28;20050;-10
2022/12/15 04:06:27;;;;;;;2.72;2.30;;;20.70;37.80;;;;;;5093712;28;20048;-11
2022/12/15 04:08:53;;;;;;;2.65;2.17;;;20.70;37.70;;;;;;5093707;28;20052;-10
2022/12/15 04:11:18;;;;;;;2.58;2.38;;;20.70;37.80;;;;;;5093557;28;20075;-10
2022/12/15 04:13:44;;;;;;;3.22;2.22;;;20.70;37.80;;;;;;5093643;28;20429;-10
2022/12/15 04:16:10;;;;;;;2.50;2.20;;;20.70;37.80;;;;;;5075732;28;20071;-10
2022/12/15 04:18:36;;;;;;;2.55;2.35;;;20.70;37.80;;;;;;5093837;28;20096;-10
2022/12/15 04:21:03;;;;;;;2.40;2.20;;;20.70;37.80;;;;;;5093518;28;20051;-10
2022/12/15 04:23:28;;;;;;;2.83;2.58;;;20.70;37.80;;;;;;5093866;28;20044;-10
2022/12/15 05:32:18;;;;;;;2.53;2.33;;;20.70;37.80;;;;;;5092577;28;20044;-10
2022/12/15 05:34:43;;;;;;;2.30;2.10;;;20.70;37.90;;;;;;5092766;28;20101;-10
2022/12/15 05:37:09;;;;;;;2.50;2.30;;;20.70;37.80;;;;;;5092296;28;20112;-10
2022/12/15 05:39:35;;;;;;;2.15;2.00;;;20.70;37.80;;;;;;5092451;28;20052;-10
2022/12/15 05:42:01;;;;;;;2.72;2.30;;;20.70;37.90;;;;;;5092460;28;20052;-10
2022/12/15 05:44:28;;;;;;;2.35;2.15;;;20.70;37.80;;;;;;5092427;28;20516;-10
2022/12/15 05:46:53;;;;;;;2.65;2.30;;;20.70;37.80;;;;;;5092220;28;20040;-10
2022/12/15 05:49:22;;;;;;;2.38;2.17;;;20.70;37.80;;;;;;5092117;28;20063;-10
2022/12/15 05:51:47;;;;;;;2.35;2.15;;;20.70;37.80;;;;;;5092189;28;20442;-10
2022/12/15 05:54:18;;;;;;;3.17;2.38;;;20.70;37.80;;;;;;5092729;28;20154;-10
2022/12/15 05:56:45;;;;;;;2.90;2.45;;;20.60;37.80;;;;;;5092094;28;20054;-10
2022/12/15 05:59:10;;;;;;;2.30;2.10;;;20.70;37.80;;;;;;5092190;28;20044;-10
2022/12/15 06:01:36;;;;;;;2.45;2.25;;;20.60;37.80;;;;;;5092151;28;20113;-10
2022/12/15 06:04:03;;;;;;;3.05;2.40;;;20.70;37.80;;;;;;5092135;28;20431;-10
2022/12/15 06:06:29;;;;;;;2.15;1.95;;;20.70;37.80;;;;;;5092187;28;20051;-10
2022/12/15 06:08:54;;;;;;;2.30;2.08;;;20.70;37.90;;;;;;5091964;28;20056;-10
2022/12/15 06:11:21;;;;;;;2.50;2.22;;;20.70;37.80;;;;;;5091997;28;20056;-10
2022/12/15 06:13:47;;;;;;;2.45;2.25;;;20.70;37.90;;;;;;5095235;28;20070;-10
2022/12/15 06:16:18;;;;;;;2.40;2.20;;;20.70;37.90;;;;;;5077195;28;20056;-10
2022/12/15 06:18:47;;;;;;;2.53;2.33;;;20.70;37.80;;;;;;5095477;28;20139;-10
2022/12/15 06:21:15;;;;;;;2.30;2.10;;;20.70;37.80;;;;;;5095361;28;20048;-10
2022/12/15 06:23:41;;;;;;;2.85;2.60;;;20.70;37.80;;;;;;5095423;28;20043;-10
2022/12/15 06:26:24;;;;;;;2.95;2.58;;;20.70;37.70;;;;;;5095886;28;20054;-10
2022/12/15 06:28:51;;;;;;;3.13;2.70;;;20.70;37.80;;;;;;5095845;28;20440;-10
2022/12/15 06:31:21;;;;;;;2.40;2.20;;;20.70;37.80;;;;;;5095224;28;20048;-10
2022/12/15 06:33:48;;;;;;;2.85;2.13;;;20.70;37.80;;;;;;5095382;28;20058;-10
2022/12/15 06:36:15;;;;;;;2.53;2.30;;;20.70;37.80;;;;;;5095175;28;20048;-10
2022/12/15 06:38:42;;;;;;;2.60;2.40;;;20.70;37.70;;;;;;5095142;28;20056;-10
2022/12/15 06:41:09;;;;;;;2.40;2.20;;;20.70;37.80;;;;;;5095424;28;20048;-10
2022/12/15 06:43:35;;;;;;;2.85;2.65;;;20.70;37.80;;;;;;5095101;28;20130;-10
2022/12/15 06:46:01;;;;;;;2.92;2.63;;;20.70;37.80;;;;;;5095040;28;20113;-10
2022/12/15 06:48:27;;;;;;;2.38;2.17;;;20.70;37.70;;;;;;5094810;28;20055;-10
2022/12/15 06:50:53;;;;;;;3.05;2.60;;;20.70;37.70;;;;;;5094881;28;20131;-10
2022/12/15 06:53:21;;;;;;;2.25;2.05;;;20.70;37.80;;;;;;5095575;28;20194;-10
2022/12/15 06:55:48;;;;;;;2.88;2.60;;;20.70;37.80;;;;;;5094923;28;20059;-10
2022/12/15 06:58:15;;;;;;;2.50;2.30;;;20.70;37.80;;;;;;5094459;28;20056;-10
2022/12/15 07:00:45;;;;;;;3.15;2.50;;;20.70;37.80;;;;;;5094757;28;20055;-10
2022/12/15 07:03:18;;;;;;;2.65;2.45;;;20.70;37.80;;;;;;5094758;28;20106;-10
2022/12/15 07:05:45;;;;;;;2.60;2.30;;;20.70;37.80;;;;;;5094757;28;20101;-10
2022/12/15 07:08:14;;;;;;;2.28;2.03;;;20.60;37.70;;;;;;5094561;28;20561;-10
2022/12/15 07:10:42;;;;;;;2.63;2.42;;;20.70;37.80;;;;;;5094466;28;20058;-10
2022/12/15 07:13:11;;;;;;;2.65;2.40;;;20.60;37.70;;;;;;5094605;28;20056;-10
2022/12/15 07:15:38;;;;;;;2.15;1.95;;;20.70;37.70;;;;;;5094246;28;20193;-10
2022/12/15 07:18:04;;;;;;;2.47;2.28;;;20.70;37.80;;;;;;5094247;28;20052;-10
2022/12/15 07:20:30;;;;;;;2.50;2.30;;;20.70;37.70;;;;;;5094097;28;20044;-10
2022/12/15 07:22:56;;;;;;;2.50;2.30;;;20.70;37.70;;;;;;5094507;28;20458;-10
2022/12/15 07:25:22;;;;;;;2.35;2.15;;;20.70;37.70;;;;;;5093223;28;20109;-10
2022/12/15 07:27:48;;;;;;;2.58;2.38;;;20.70;37.70;;;;;;5094250;28;20083;-10
2022/12/15 07:30:16;;;;;;;2.65;2.42;;;20.70;37.70;;;;;;5093940;28;20574;-10
2022/12/15 07:32:43;;;;;;;3.10;2.22;;;20.70;37.70;;;;;;5094109;28;20052;-10
2022/12/15 07:35:09;;;;;;;2.83;2.63;;;20.70;37.70;;;;;;5094272;28;20052;-11
2022/12/15 07:37:35;;;;;;;3.05;2.30;;;20.70;37.70;;;;;;5094279;28;20145;-11
2022/12/15 07:40:02;;;;;;;2.55;2.35;;;20.70;37.60;;;;;;5093785;28;20386;-10
2022/12/15 07:42:28;;;;;;;2.50;2.30;;;20.70;37.70;;;;;;5094127;28;20051;-11
2022/12/15 07:44:54;;;;;;;3.17;2.70;;;20.70;37.60;;;;;;5093973;28;20098;-11
2022/12/15 07:47:20;;;;;;;2.70;2.50;;;20.70;37.60;;;;;;5093759;28;20052;-10
2022/12/15 07:50:06;;;;;;;2.40;2.20;;;20.70;37.60;;;;;;5093821;28;20052;-11
2022/12/15 07:52:32;;;;;;;2.65;2.40;;;20.70;37.60;;;;;;5093727;28;20493;-10
2022/12/15 07:54:58;;;;;;;2.47;2.20;;;20.70;37.60;;;;;;5093773;28;20048;-11
2022/12/15 07:57:23;;;;;;;2.75;2.33;;;20.70;37.60;;;;;;5093559;28;20459;-11
2022/12/15 07:59:50;;;;;;;2.40;2.20;;;20.60;38.10;;;;;;5093992;28;20457;-11
2022/12/15 08:02:16;;;;;;;2.47;2.28;;;20.70;37.50;;;;;;5093557;28;20091;-11
2022/12/15 08:04:41;;;;;;;2.95;2.65;;;20.70;37.60;;;;;;5093586;28;20079;-12
2022/12/15 08:07:08;;;;;;;2.15;1.98;;;20.70;37.50;;;;;;5093798;28;20067;-10
2022/12/15 08:09:34;;;;;;;2.40;2.20;;;20.70;37.50;;;;;;5093202;28;20059;-11
2022/12/15 08:12:01;;;;;;;2.80;2.50;;;20.70;37.50;;;;;;5092783;28;20052;-11
2022/12/15 08:14:28;;;;;;;3.13;2.60;;;20.70;37.50;;;;;;5091911;28;20059;-12
2022/12/15 08:16:54;;;;;;;2.33;2.13;;;20.70;37.50;;;;;;5093000;28;20177;-11
2022/12/15 08:19:20;;;;;;;2.17;1.98;;;20.70;37.50;;;;;;5093311;28;20135;-10
2022/12/15 08:21:47;;;;;;;2.63;2.42;;;20.70;37.50;;;;;;5093367;28;20051;-10
2022/12/15 08:24:13;;;;;;;2.58;2.03;;;20.70;37.50;;;;;;5093201;28;20489;-10
2022/12/15 08:26:40;;;;;;;2.70;2.50;;;20.70;37.50;;;;;;5093346;28;20583;-10
2022/12/15 08:29:12;;;;;;;2.42;2.22;;;20.60;37.50;;;;;;5093291;28;20072;-10
2022/12/15 08:31:38;;;;;;;2.60;1.83;;;20.70;37.50;;;;;;5093169;28;20155;-10
2022/12/15 08:34:05;;;;;;;3.13;2.60;;;20.70;37.50;;;;;;5093287;28;20048;-10
2022/12/15 08:36:31;;;;;;;3.10;2.63;;;20.70;37.50;;;;;;5093287;28;20097;-10
2022/12/15 08:38:59;;;;;;;2.42;2.22;;;20.70;37.50;;;;;;5092936;28;20052;-10
2022/12/15 08:41:30;;;;;;;3.65;2.58;;;20.70;37.00;;;;;;5093033;28;20044;-10
2022/12/15 08:43:57;;;;;;;3.22;2.80;;;20.70;36.80;;;;;;5074888;28;20139;-10
2022/12/15 08:46:28;;;;;;;3.10;2.75;;;20.70;36.30;;;;;;5092944;28;20108;-10
2022/12/15 08:48:55;;;;;;;3.20;2.90;;;20.60;35.60;;;;;;5093004;28;20048;-10
2022/12/15 08:51:22;;;;;;;3.45;3.10;;;20.60;36.00;;;;;;5092871;28;20068;-10
2022/12/15 08:53:47;;;;;;;3.13;2.83;;;20.60;36.10;;;;;;5093004;28;20097;-10
2022/12/15 08:56:18;;;;;;;3.60;3.30;;;20.60;36.20;;;;;;5092953;28;20056;-10
2022/12/15 08:58:45;;;;;;;3.20;2.87;;;20.70;36.30;;;;;;5092734;28;20084;-10
2022/12/15 09:01:16;;;;;;;3.22;2.83;;;20.70;36.30;;;;;;5092815;28;20415;-10
2022/12/15 09:03:43;;;;;;;3.17;2.80;;;20.70;36.30;;;;;;5091521;28;20047;-10
2022/12/15 09:06:23;;;;;;;3.88;3.35;;;20.70;36.30;;;;;;5092593;28;20417;-10
2022/12/15 09:08:49;;;;;;;3.22;2.80;;;20.70;36.40;;;;;;5092703;28;20052;-10
2022/12/15 09:11:15;;;;;;;3.15;2.60;;;20.70;36.30;;;;;;5091079;28;20052;-11
2022/12/15 09:13:41;;;;;;;3.10;2.80;;;20.70;36.30;;;;;;5092500;28;20052;-11
2022/12/15 09:16:12;;;;;;;3.15;2.85;;;20.70;36.40;;;;;;5092275;28;20052;-11
2022/12/15 09:18:42;;;;;;;4.82;3.25;;;20.70;36.40;;;;;;5092672;28;20051;-11
2022/12/15 09:21:12;;;;;;;2.88;2.50;;;20.80;36.40;;;;;;5092413;28;20108;-10
2022/12/15 09:23:39;;;;;;;2.63;2.00;;;20.80;36.40;;;;;;5092472;28;20405;-11
2022/12/15 09:26:07;;;;;;;3.03;2.75;;;20.80;36.40;;;;;;5092331;28;20047;-10
2022/12/15 09:28:33;;;;;;;3.47;2.75;;;20.80;36.50;;;;;;5092256;28;20100;-10
2022/12/15 09:31:20;;;;;;;3.55;3.00;;;20.80;36.40;;;;;;5092629;28;20044;-10
2022/12/15 09:33:47;;;;;;;3.45;2.97;;;20.80;36.50;;;;;;5092296;28;20399;-11
2022/12/15 09:36:13;;;;;;;3.08;2.78;;;20.80;36.50;;;;;;5092133;28;20172;-11
2022/12/15 09:38:40;;;;;;;3.22;2.90;;;20.80;36.50;;;;;;5092386;28;20061;-12
2022/12/15 09:41:13;;;;;;;3.08;2.78;;;20.80;36.60;;;;;;5092516;28;20520;-12
2022/12/15 09:44:05;;;;;;;3.15;2.85;;;20.80;37.10;;;;;;5092038;28;20097;-12
2022/12/15 09:46:43;;;;;;;;;;;20.80;36.50;;;;;;5092575;28;20051;-10
2022/12/15 09:49:20;;;;;;;2.95;2.67;;;20.80;36.50;;;;;;5095718;28;19922;-10
2022/12/15 09:51:57;;;;;;;3.72;3.15;;;20.80;36.50;;;;;;5095463;28;20075;-10
2022/12/15 09:54:27;;;;;;;3.50;2.58;;;20.80;36.50;;;;;;5095692;28;20052;-9
2022/12/15 09:56:56;;;;;;;2.97;2.67;;;20.90;36.60;;;;;;5095630;28;20079;-10
2022/12/15 09:59:31;;;;;;;3.08;2.78;;;20.80;36.60;;;;;;5095294;28;20055;-9
2022/12/15 10:02:08;;;;;;;3.22;2.88;;;20.80;36.60;;;;;;5095665;28;20052;-11
2022/12/15 10:04:49;;;;;;;3.38;2.65;;;20.80;36.60;;;;;;5095445;28;20076;-12
2022/12/15 10:07:26;;;;;;;3.28;2.63;;;20.80;36.70;;;;;;5095502;28;20052;-12
2022/12/15 10:09:52;;;;;;;2.78;2.55;;;20.80;36.70;;;;;;5077402;28;20070;-12
2022/12/15 10:12:25;;;;;;;3.10;2.80;;;20.80;36.70;;;;;;5095623;28;20478;-12
2022/12/15 10:14:54;;;;;;;2.90;2.70;;;20.70;36.70;;;;;;5095291;28;20051;-12
2022/12/15 10:17:28;;;;;;;4.68;2.80;;;20.80;36.80;;;;;;5095938;28;20055;-12
2022/12/15 10:20:03;;;;;;;2.80;2.55;;;20.80;36.80;;;;;;5095148;28;20080;-12
2022/12/15 10:22:32;;;;;;;3.03;2.65;;;20.80;36.80;;;;;;5095398;28;20405;-12
2022/12/15 10:25:15;;;;;;;3.63;2.80;;;20.70;36.70;;;;;;5095272;28;20055;-12
2022/12/15 10:27:56;;;;;;;3.95;2.70;;;20.70;36.70;;;;;;5095172;28;20051;-9
2022/12/15 10:30:22;;;;;;;2.88;2.67;;;20.80;36.80;;;;;;5094920;28;20106;-10
2022/12/15 10:32:57;;;;;;;3.20;2.85;;;20.80;36.80;;;;;;5095614;28;20052;-9
2022/12/15 10:35:27;;;;;;;2.70;2.47;;;20.80;36.80;;;;;;5095111;28;20051;-10
2022/12/15 10:38:33;;;;;;;2.83;2.63;;;20.70;36.70;;;;;;5095271;28;20060;-10
2022/12/15 10:41:03;;;;;;;2.58;2.38;;;20.80;36.80;;;;;;5091661;28;20060;-10
2022/12/15 10:43:34;;;;;;;2.63;2.42;;;20.80;36.80;;;;;;5095023;28;20059;-9
2022/12/15 10:46:17;;;;;;;3.13;2.65;;;20.70;36.80;;;;;;5094962;28;20044;-10
2022/12/15 10:48:46;;;;;;;3.35;2.63;;;20.80;36.80;;;;;;5094891;28;20052;-10
2022/12/15 10:51:12;;;;;;;2.95;2.55;;;20.80;36.80;;;;;;5094816;28;20050;-10
2022/12/15 10:53:42;;;;;;;2.72;2.28;;;20.80;36.80;;;;;;5094895;28;20071;-10
2022/12/15 10:56:08;;;;;;;2.72;2.50;;;20.80;36.80;;;;;;5094787;28;20113;-10
2022/12/15 10:58:50;;;;;;;3.55;2.67;;;20.80;36.80;;;;;;5093757;28;20083;-10
2022/12/15 11:01:34;;;;;;;2.97;2.67;;;20.80;36.80;;;;;;5094835;28;20538;-10
2022/12/15 11:04:00;;;;;;;3.58;2.88;;;20.80;36.80;;;;;;5094647;28;20055;-10
2022/12/15 11:06:31;;;;;;;2.67;2.47;;;20.80;36.90;;;;;;5094650;28;20490;-10
2022/12/15 11:09:08;;;;;;;2.97;2.63;;;20.80;36.80;;;;;;5094502;28;20142;-10
2022/12/15 11:14:42;;;;;;;2.88;2.63;;;20.80;36.80;;;;;;5094540;28;20554;-10
2022/12/15 11:17:08;;;;;;;3.95;2.35;;;20.80;36.80;;;;;;5094571;28;20052;-10
2022/12/15 11:19:39;;;;;;;2.72;2.28;;;20.80;36.80;;;;;;5094257;28;20055;-10
2022/12/15 11:22:17;;;;;;;2.80;2.50;;;20.80;36.70;;;;;;5076414;28;20080;-10
2022/12/15 11:24:48;;;;;;;2.75;2.50;;;20.80;36.70;;;;;;5094744;28;20150;-10
2022/12/15 11:27:32;;;;;;;2.85;2.55;;;20.80;36.80;;;;;;5094290;28;20059;-10
2022/12/15 11:30:12;;;;;;;2.80;2.60;;;20.80;36.70;;;;;;5094299;28;20048;-10
2022/12/15 11:32:41;;;;;;;3.72;2.80;;;20.90;36.70;;;;;;5094107;28;20513;-10
2022/12/15 11:35:13;;;;;;;2.50;2.30;;;20.90;36.70;;;;;;5094017;28;20504;-10
2022/12/15 11:37:40;;;;;;;3.28;2.50;;;20.90;36.70;;;;;;5094219;28;20059;-10
2022/12/15 11:40:38;;;;;;;3.35;2.75;;;20.90;36.70;;;;;;5094106;28;20048;-10
2022/12/15 11:43:50;;;;;;;2.80;2.13;;;20.90;36.60;;;;;;5093836;28;20077;-10
2022/12/15 11:46:22;;;;;;;2.72;2.30;;;20.90;36.60;;;;;;5093895;28;20486;-10
2022/12/15 11:48:51;;;;;;;2.85;2.53;;;20.90;36.60;;;;;;5093765;28;20052;-10
2022/12/15 11:51:25;;;;;;;2.58;2.38;;;20.90;36.60;;;;;;5093721;28;20048;-10
2022/12/15 11:54:13;;;;;;;2.55;2.35;;;20.90;36.70;;;;;;5093931;28;20051;-10
2022/12/15 11:56:54;;;;;;;2.65;2.45;;;20.90;37.30;;;;;;5077118;28;20065;-10
2022/12/15 11:59:41;;;;;;;2.50;2.30;;;20.90;36.70;;;;;;5093820;28;20052;-10
2022/12/15 12:02:22;;;;;;;3.17;2.80;;;20.80;36.60;;;;;;5093773;28;20537;-10
2022/12/15 12:05:03;;;;;;;2.50;2.30;;;20.90;36.70;;;;;;5093672;28;20083;-11
2022/12/15 12:07:51;;;;;;;2.60;2.28;;;20.80;36.70;;;;;;5093519;28;20052;-11
2022/12/15 12:10:38;;;;;;;2.85;2.53;;;20.80;36.70;;;;;;5091821;28;20409;-10
2022/12/15 12:13:20;;;;;;;3.10;2.78;;;20.90;36.70;;;;;;5093748;28;20105;-11
2022/12/15 12:15:56;;;;;;;2.63;2.42;;;20.90;36.70;;;;;;5093491;28;20135;-11
2022/12/15 12:18:27;;;;;;;2.60;2.40;;;20.90;36.70;;;;;;5093579;28;20546;-11
2022/12/15 12:21:15;;;;;;;2.55;2.13;;;20.90;36.60;;;;;;5093546;28;20048;-10
2022/12/15 12:24:15;;;;;;;2.40;2.20;;;20.90;36.60;;;;;;5093479;28;20491;-11
2022/12/15 12:27:04;;;;;;;3.17;2.72;;;20.90;36.70;;;;;;5092851;28;20064;-11
2022/12/15 12:29:36;;;;;;;3.45;2.75;;;20.90;36.60;;;;;;4991042;28;20054;-10
2022/12/15 12:32:32;;;;;;;2.50;2.30;;;20.90;36.60;;;;;;5075705;28;20068;-11
2022/12/15 12:35:24;;;;;;;2.53;2.33;;;20.90;36.60;;;;;;5092459;28;20082;-11
2022/12/15 12:37:51;;;;;;;3.55;2.60;;;20.90;36.60;;;;;;5093502;28;20443;-11
2022/12/15 12:40:27;;;;;;;2.60;2.40;;;20.90;36.70;;;;;;5092918;28;20052;-11
2022/12/15 12:42:57;;;;;;;2.45;2.25;;;20.90;36.70;;;;;;5093444;28;20052;-11
2022/12/15 12:45:46;;;;;;;3.10;2.72;;;20.90;36.60;;;;;;5092955;28;20063;-10
2022/12/15 12:48:26;;;;;;;3.00;2.60;;;20.90;36.60;;;;;;5092594;28;20052;-11
2022/12/15 12:51:16;;;;;;;2.58;2.38;;;20.90;36.70;;;;;;5093272;28;20093;-11
2022/12/15 12:53:42;;;;;;;2.30;2.10;;;20.90;36.70;;;;;;5092716;28;20062;-11
2022/12/15 12:56:38;;;;;;;2.70;2.25;;;20.80;36.70;;;;;;5093225;28;20131;-11
2022/12/15 12:59:27;;;;;;;2.55;2.20;;;20.90;36.70;;;;;;5092808;28;20051;-11
2022/12/15 13:02:20;;;;;;;3.13;2.75;;;20.90;36.70;;;;;;5092872;28;20084;-11
2022/12/15 13:05:31;;;;;;;2.50;2.00;;;20.90;36.70;;;;;;5093359;28;20055;-11
2022/12/15 13:08:05;;;;;;;2.85;2.60;;;20.90;36.70;;;;;;5092718;28;20059;-10
2022/12/15 13:10:35;;;;;;;2.20;2.00;;;20.90;36.70;;;;;;5092264;28;20063;-11
2022/12/15 13:13:43;;;;;;;2.33;2.13;;;20.90;36.70;;;;;;5092443;28;20052;-11
2022/12/15 13:16:24;;;;;;;2.30;2.10;;;20.90;36.70;;;;;;5092696;28;20051;-11
2022/12/15 13:19:06;;;;;;;2.72;2.30;;;20.90;36.80;;;;;;5093042;28;20058;-11
2022/12/15 13:21:44;;;;;;;2.42;2.15;;;20.90;36.80;;;;;;5091786;28;20063;-11
2022/12/15 13:24:33;;;;;;;2.45;2.25;;;20.80;36.70;;;;;;5091803;28;20056;-11
2022/12/15 13:27:04;;;;;;;2.65;2.38;;;20.90;36.80;;;;;;5092495;28;20056;-11
2022/12/15 13:29:30;;;;;;;2.70;2.50;;;20.80;36.70;;;;;;5092918;28;20538;-11
2022/12/15 13:31:55;;;;;;;2.35;2.15;;;20.80;36.70;;;;;;5092546;28;20143;-11
2022/12/15 13:34:24;;;;;;;3.13;2.30;;;20.80;36.80;;;;;;5092154;28;20410;-11
2022/12/15 13:36:52;;;;;;;2.80;2.42;;;20.80;36.70;;;;;;5092362;28;20068;-10
2022/12/15 13:39:18;;;;;;;2.50;2.30;;;20.80;36.70;;;;;;5092267;28;20473;-11
2022/12/15 13:41:45;;;;;;;2.30;2.10;;;20.90;36.80;;;;;;5092301;28;20072;-11
2022/12/15 13:44:23;;;;;;;2.33;1.98;;;20.80;36.80;;;;;;5091069;28;20051;-12
2022/12/15 13:46:51;;;;;;;2.38;2.17;;;20.80;36.70;;;;;;5091192;28;20066;-11
2022/12/15 13:49:36;;;;;;;2.50;2.30;;;20.80;36.80;;;;;;5091393;28;20048;-11
2022/12/15 13:52:33;;;;;;;2.22;2.03;;;20.80;36.80;;;;;;5091424;28;20557;-11
2022/12/15 13:55:04;;;;;;;3.88;2.60;;;20.80;36.80;;;;;;5089849;28;20050;-11
2022/12/15 13:57:31;;;;;;;;;;;20.80;36.90;;;;;;5091779;28;20044;-11
2022/12/15 14:00:06;;;;;;;2.70;2.50;;;20.80;36.90;;;;;;5090871;28;19955;-11
2022/12/15 14:02:37;;;;;;;2.40;2.20;;;20.80;36.90;;;;;;5092026;28;20073;-10
2022/12/15 14:05:21;;;;;;;2.42;2.22;;;20.80;36.90;;;;;;5091936;28;20075;-11
2022/12/15 14:07:55;;;;;;;2.38;2.17;;;20.80;37.00;;;;;;5091702;28;20434;-10
2022/12/15 14:10:38;;;;;;;3.00;2.20;;;20.70;36.90;;;;;;5091380;28;20485;-11
2022/12/15 14:13:12;;;;;;;3.67;2.88;;;20.70;36.90;;;;;;5091674;28;20527;-11
2022/12/15 14:15:43;;;;;;;2.78;2.28;;;20.70;37.00;;;;;;5091221;28;20052;-11
2022/12/15 14:18:22;;;;;;;2.40;2.20;;;20.70;37.00;;;;;;5091589;28;20048;-10
2022/12/15 14:20:49;;;;;;;2.88;2.42;;;20.70;37.00;;;;;;5087697;28;20048;-11
2022/12/15 14:23:24;;;;;;;2.50;2.20;;;20.70;37.00;;;;;;5091999;28;20490;-11
2022/12/15 14:25:56;;;;;;;2.60;2.40;;;20.70;37.00;;;;;;5091458;28;20101;-10
2022/12/15 14:28:25;;;;;;;2.50;2.30;;;20.70;37.00;;;;;;5091736;28;20054;-11
2022/12/15 14:30:51;;;;;;;2.65;2.42;;;20.70;37.00;;;;;;5091434;28;20052;-11
2022/12/15 14:33:17;;;;;;;3.05;2.38;;;20.70;37.00;;;;;;5092225;28;20162;-11
2022/12/15 14:35:46;;;;;;;3.70;2.53;;;20.70;37.00;;;;;;5095044;28;20059;-11
2022/12/15 14:38:21;;;;;;;5.63;2.17;;;20.70;36.90;;;;;;5095040;28;20058;-11
2022/12/15 14:40:50;;;;;;;2.72;2.40;;;20.70;37.00;;;;;;5094907;28;20410;-10
2022/12/15 14:43:22;;;;;;;3.40;2.40;;;20.70;37.00;;;;;;5076535;28;20060;-10
2022/12/15 14:45:56;;;;;;;2.88;2.40;;;20.70;36.90;;;;;;5095059;28;20422;-10
2022/12/15 14:48:33;;;;;;;2.50;2.30;;;20.70;36.90;;;;;;5094482;28;20048;-10
2022/12/15 14:51:01;;;;;;;2.38;2.17;;;20.70;36.90;;;;;;5094563;28;20040;-11
2022/12/15 14:53:33;;;;;;;2.28;2.08;;;20.80;36.90;;;;;;5094520;28;20143;-10
2022/12/15 14:56:21;;;;;;;2.20;2.00;;;20.80;36.80;;;;;;5094985;28;20052;-10
2022/12/15 14:59:02;;;;;;;2.65;2.20;;;20.80;36.80;;;;;;5094055;28;20056;-11
2022/12/15 15:01:33;;;;;;;2.40;2.20;;;20.80;36.80;;;;;;5094269;28;20482;-10
2022/12/15 15:04:05;;;;;;;2.53;2.33;;;20.80;36.80;;;;;;5094071;28;20063;-10
2022/12/15 15:06:35;;;;;;;3.15;2.85;;;20.80;36.80;;;;;;5094283;28;20059;-10
2022/12/15 15:09:19;;;;;;;1.95;1.70;;;20.80;36.90;;;;;;5093891;28;20056;-11
2022/12/15 15:11:49;;;;;;;2.17;1.95;;;20.80;36.80;;;;;;5094208;28;20076;-11
2022/12/15 15:14:26;;;;;;;2.33;2.10;;;20.80;36.90;;;;;;5093842;28;20109;-10
2022/12/15 15:17:03;;;;;;;2.85;2.30;;;20.80;36.90;;;;;;5093678;28;20056;-11
2022/12/15 15:19:30;;;;;;;2.38;2.17;;;20.80;36.90;;;;;;5093616;28;20097;-11
2022/12/15 15:22:01;;;;;;;2.58;2.17;;;20.80;36.90;;;;;;5093718;28;20051;-11
2022/12/15 15:24:36;;;;;;;2.42;2.15;;;20.70;36.90;;;;;;5093673;28;20056;-11
2022/12/15 15:27:26;;;;;;;2.20;2.00;;;20.70;36.90;;;;;;5093518;28;20475;-11
2022/12/15 15:29:52;;;;;;;1.70;1.50;;;20.70;36.90;;;;;;5074374;28;20092;-11
2022/12/15 15:32:20;;;;;;;2.95;2.25;;;20.70;36.90;;;;;;5093386;28;20093;-10
2022/12/15 15:34:46;;;;;;;2.47;2.28;;;20.70;36.90;;;;;;5093564;28;20048;-10